createdAt,value
2022-12-14T00:00:46.808Z,71.13
2022-12-14T00:03:23.618Z,70.39
2022-12-14T00:05:57.882Z,70.98
2022-12-14T00:08:30.895Z,70.79
2022-12-14T00:11:03.566Z,69.96
2022-12-14T00:13:36.716Z,70.78
2022-12-14T00:16:11.919Z,70.90
2022-12-14T00:18:46.174Z,71.46
2022-12-14T00:21:21.494Z,71.31
2022-12-14T00:23:55.541Z,71.05
2022-12-14T00:26:30.951Z,70.65
2022-12-14T00:29:04.710Z,70.88
2022-12-14T00:31:37.710Z,70.59
2022-12-14T00:34:10.582Z,70.73
2022-12-14T00:36:44.823Z,70.62
2022-12-14T00:39:17.786Z,70.27
2022-12-14T00:41:50.515Z,70.71
2022-12-14T00:44:23.374Z,70.79
2022-12-14T00:46:56.200Z,70.27
2022-12-14T00:49:30.055Z,70.60
2022-12-14T00:52:04.357Z,71.21
2022-12-14T00:54:37.419Z,70.33
2022-12-14T00:57:10.653Z,70.96
2022-12-14T00:59:43.600Z,71.13
2022-12-14T01:02:16.338Z,71.35
2022-12-14T01:04:49.245Z,71.35
2022-12-14T01:07:23.327Z,71.12
2022-12-14T01:09:56.245Z,70.86
2022-12-14T01:12:28.786Z,70.80
2022-12-14T01:15:01.577Z,70.36
2022-12-14T01:17:34.350Z,70.59
2022-12-14T01:20:08.607Z,70.88
2022-12-14T01:22:42.795Z,70.46
2022-12-14T01:25:15.615Z,70.97
2022-12-14T01:27:48.905Z,71.16
2022-12-14T01:30:21.838Z,70.68
2022-12-14T01:32:54.756Z,70.91
2022-12-14T01:35:27.606Z,70.55
2022-12-14T01:38:03.351Z,70.67
2022-12-14T01:40:36.302Z,70.93
2022-12-14T01:43:14.113Z,71.07
2022-12-14T01:45:47.079Z,70.90
2022-12-14T01:48:19.799Z,70.79
2022-12-14T01:50:52.851Z,70.15
2022-12-14T01:53:27.316Z,70.98
2022-12-14T01:56:01.486Z,70.93
2022-12-14T01:58:34.483Z,70.26
2022-12-14T02:01:11.469Z,70.19
2022-12-14T02:03:48.853Z,70.11
2022-12-14T02:06:26.670Z,71.06
2022-12-14T02:09:01.061Z,70.63
2022-12-14T02:11:43.988Z,70.64
2022-12-14T02:14:16.869Z,70.28
2022-12-14T02:16:51.436Z,70.90
2022-12-14T02:19:24.913Z,70.22
2022-12-14T02:22:15.243Z,70.95
2022-12-14T02:25:05.724Z,70.61
2022-12-14T02:27:53.787Z,70.55
2022-12-14T02:30:29.750Z,70.89
2022-12-14T02:33:27.886Z,70.08
2022-12-14T02:36:04.483Z,70.81
2022-12-14T02:38:48.317Z,70.68
2022-12-14T02:41:26.911Z,70.82
2022-12-14T02:44:11.066Z,70.30
2022-12-14T02:46:54.256Z,70.79
2022-12-14T02:49:48.984Z,70.24
2022-12-14T02:52:34.057Z,70.50
2022-12-14T02:55:11.326Z,71.41
2022-12-14T02:57:49.684Z,70.34
2022-12-14T03:00:22.666Z,70.88
2022-12-14T03:02:57.519Z,70.40
2022-12-14T03:05:30.604Z,70.38
2022-12-14T03:08:05.752Z,71.00
2022-12-14T03:10:44.215Z,70.88
2022-12-14T03:13:23.175Z,71.43
2022-12-14T03:16:00.999Z,70.44
2022-12-14T03:18:39.081Z,70.61
2022-12-14T03:21:14.700Z,70.62
2022-12-14T03:23:50.753Z,70.79
2022-12-14T03:26:27.712Z,70.73
2022-12-14T03:29:07.534Z,70.15
2022-12-14T03:31:48.917Z,71.25
2022-12-14T03:34:29.487Z,70.64
2022-12-14T03:37:10.841Z,70.25
2022-12-14T03:39:46.873Z,70.42
2022-12-14T03:42:24.491Z,70.90
2022-12-14T03:45:05.706Z,70.22
2022-12-14T03:47:54.772Z,69.84
2022-12-14T03:50:37.548Z,70.18
2022-12-14T03:53:13.823Z,70.26
2022-12-14T03:55:57.448Z,70.35
2022-12-14T03:58:39.212Z,70.72
2022-12-14T04:01:15.505Z,70.44
2022-12-14T04:03:55.422Z,70.28
2022-12-14T04:06:40.239Z,70.75
2022-12-14T04:09:36.357Z,69.85
2022-12-14T04:12:31.088Z,70.22
2022-12-14T04:15:26.754Z,71.03
2022-12-14T04:18:23.094Z,70.33
2022-12-14T04:21:00.689Z,70.35
2022-12-14T04:23:57.915Z,70.52
2022-12-14T04:26:35.858Z,71.21
2022-12-14T04:29:31.714Z,71.12
2022-12-14T04:32:10.815Z,70.29
2022-12-14T04:34:46.767Z,70.22
2022-12-14T04:37:23.870Z,70.12
2022-12-14T04:40:05.225Z,70.55
2022-12-14T04:42:45.787Z,70.75
2022-12-14T04:45:25.426Z,70.76
2022-12-14T04:48:07.027Z,70.70
2022-12-14T04:50:46.229Z,70.91
2022-12-14T04:53:23.893Z,70.63
2022-12-14T04:56:06.465Z,70.27
2022-12-14T04:58:41.284Z,70.39
2022-12-14T05:01:27.948Z,70.34
2022-12-14T05:04:12.322Z,70.08
2022-12-14T05:06:52.952Z,70.62
2022-12-14T05:09:30.382Z,70.47
2022-12-14T05:12:09.876Z,70.74
2022-12-14T05:14:47.907Z,70.43
2022-12-14T05:17:21.025Z,70.33
2022-12-14T05:19:54.314Z,69.71
2022-12-14T05:22:27.082Z,71.24
2022-12-14T05:25:00.151Z,70.21
2022-12-14T05:27:34.523Z,70.86
2022-12-14T05:30:08.496Z,69.84
2022-12-14T05:32:41.384Z,69.79
2022-12-14T05:35:14.467Z,70.74
2022-12-14T05:37:47.254Z,70.56
2022-12-14T05:40:22.263Z,70.40
2022-12-14T05:43:05.911Z,70.30
2022-12-14T05:45:38.985Z,70.24
2022-12-14T05:48:11.816Z,70.68
2022-12-14T05:50:44.475Z,70.11
2022-12-14T05:53:17.238Z,70.55
2022-12-14T05:55:50.855Z,69.79
2022-12-14T05:58:25.025Z,70.30
2022-12-14T06:01:02.326Z,72.08
2022-12-14T06:03:59.198Z,70.28
2022-12-14T06:06:46.518Z,69.87
2022-12-14T06:09:20.062Z,69.81
2022-12-14T06:11:53.217Z,70.06
2022-12-14T06:14:27.626Z,70.10
2022-12-14T06:17:01.658Z,70.27
2022-12-14T06:19:34.465Z,70.61
2022-12-14T06:22:10.073Z,70.13
2022-12-14T06:24:43.087Z,69.92
2022-12-14T06:27:22.221Z,69.63
2022-12-14T06:29:56.917Z,70.12
2022-12-14T06:32:29.743Z,70.37
2022-12-14T06:35:02.282Z,70.04
2022-12-14T06:37:34.983Z,70.01
2022-12-14T06:40:08.414Z,70.65
2022-12-14T06:42:41.757Z,70.10
2022-12-14T06:45:16.026Z,69.97
2022-12-14T06:47:48.697Z,68.93
2022-12-14T06:50:21.570Z,70.08
2022-12-14T06:52:55.417Z,69.45
2022-12-14T06:55:29.313Z,69.72
2022-12-14T06:58:02.269Z,70.25
2022-12-14T07:00:36.411Z,69.76
2022-12-14T07:03:09.763Z,69.82
2022-12-14T07:05:48.693Z,69.55
2022-12-14T07:08:21.936Z,69.48
2022-12-14T07:11:00.549Z,69.60
2022-12-14T07:13:35.328Z,69.98
2022-12-14T07:16:13.780Z,69.21
2022-12-14T07:18:47.157Z,70.09
2022-12-14T07:21:21.609Z,69.49
2022-12-14T07:23:54.571Z,71.49
2022-12-14T07:26:28.660Z,69.51
2022-12-14T07:29:01.587Z,69.44
2022-12-14T07:31:36.088Z,69.49
2022-12-14T07:34:08.921Z,69.54
2022-12-14T07:36:43.161Z,69.83
2022-12-14T07:39:16.652Z,69.93
2022-12-14T07:41:52.099Z,69.72
2022-12-14T07:44:28.005Z,69.56
2022-12-14T07:47:02.102Z,69.94
2022-12-14T07:49:35.293Z,69.04
2022-12-14T07:52:08.385Z,69.22
2022-12-14T07:54:41.346Z,70.35
2022-12-14T07:57:14.152Z,69.14
2022-12-14T07:59:52.940Z,69.55
2022-12-14T08:02:31.592Z,69.84
2022-12-14T08:05:09.243Z,69.30
2022-12-14T08:07:45.197Z,69.39
2022-12-14T08:10:17.959Z,69.58
2022-12-14T08:12:51.032Z,70.00
2022-12-14T08:15:23.913Z,69.37
2022-12-14T08:17:57.937Z,69.89
2022-12-14T08:20:30.976Z,68.77
2022-12-14T08:23:03.867Z,68.36
2022-12-14T08:25:36.747Z,69.19
2022-12-14T08:28:09.333Z,69.26
2022-12-14T08:30:42.531Z,69.08
2022-12-14T08:33:25.590Z,69.16
2022-12-14T08:36:06.020Z,68.64
2022-12-14T08:38:39.296Z,68.98
2022-12-14T08:41:13.372Z,68.21
2022-12-14T08:43:49.879Z,68.73
2022-12-14T08:46:24.046Z,69.10
2022-12-14T08:48:59.304Z,68.77
2022-12-14T08:51:32.109Z,68.64
2022-12-14T08:54:05.118Z,68.76
2022-12-14T08:56:38.840Z,68.71
2022-12-14T08:59:24.636Z,68.19
2022-12-14T09:02:04.835Z,68.63
2022-12-14T09:04:39.360Z,68.89
2022-12-14T09:07:12.077Z,67.96
2022-12-14T09:09:45.123Z,69.03
2022-12-14T09:12:17.974Z,68.54
2022-12-14T09:14:52.014Z,68.99
2022-12-14T09:17:24.859Z,68.83
2022-12-14T09:19:58.996Z,68.51
2022-12-14T09:22:32.471Z,68.15
2022-12-14T09:25:05.625Z,68.80
2022-12-14T09:27:38.375Z,68.84
2022-12-14T09:30:11.442Z,69.34
2022-12-14T09:32:46.446Z,69.01
2022-12-14T09:35:24.892Z,69.50
2022-12-14T09:37:58.041Z,69.37
2022-12-14T09:40:34.125Z,69.39
2022-12-14T09:43:15.732Z,69.24
2022-12-14T09:45:55.593Z,68.55
2022-12-14T09:48:28.703Z,69.30
2022-12-14T09:51:03.455Z,68.59
2022-12-14T09:53:37.272Z,69.05
2022-12-14T09:56:14.231Z,69.36
2022-12-14T09:58:54.309Z,68.81
2022-12-14T10:02:14.077Z,68.47
2022-12-14T10:04:56.435Z,69.11
2022-12-14T10:07:39.236Z,69.29
2022-12-14T10:10:20.705Z,69.20
2022-12-14T10:13:04.207Z,69.17
2022-12-14T10:15:43.808Z,69.09
2022-12-14T10:19:03.245Z,68.61
2022-12-14T10:21:46.221Z,68.41
2022-12-14T10:24:22.760Z,68.94
2022-12-14T10:26:56.779Z,68.92
2022-12-14T10:29:34.264Z,68.68
2022-12-14T10:32:18.899Z,68.64
2022-12-14T10:34:52.219Z,68.79
2022-12-14T10:37:27.648Z,68.74
2022-12-14T10:40:27.508Z,68.81
2022-12-14T10:43:20.696Z,69.15
2022-12-14T10:46:01.197Z,68.67
2022-12-14T10:48:41.883Z,68.72
2022-12-14T10:51:20.845Z,68.74
2022-12-14T10:53:57.760Z,67.97
2022-12-14T10:56:35.498Z,69.04
2022-12-14T10:59:31.197Z,68.76
2022-12-14T11:02:17.036Z,69.10
2022-12-14T11:04:52.398Z,68.51
2022-12-14T11:07:27.770Z,69.07
2022-12-14T11:10:17.014Z,67.70
2022-12-14T11:13:05.610Z,68.46
2022-12-14T11:15:40.754Z,67.95
2022-12-14T11:18:28.751Z,68.17
2022-12-14T11:21:03.611Z,68.47
2022-12-14T11:23:39.464Z,67.68
2022-12-14T11:26:16.402Z,67.25
2022-12-14T11:28:53.440Z,67.89
2022-12-14T11:31:32.192Z,67.28
2022-12-14T11:34:06.724Z,68.02
2022-12-14T11:36:41.432Z,66.78
2022-12-14T11:39:22.622Z,66.94
2022-12-14T11:42:03.069Z,67.70
2022-12-14T11:44:38.521Z,67.01
2022-12-14T11:47:15.765Z,67.19
2022-12-14T11:49:50.935Z,67.26
2022-12-14T11:52:26.485Z,67.40
2022-12-14T11:55:13.455Z,67.56
2022-12-14T11:57:50.155Z,67.46
2022-12-14T12:00:27.287Z,68.23
2022-12-14T12:03:02.866Z,68.23
2022-12-14T12:05:41.525Z,69.20
2022-12-14T12:08:24.750Z,68.15
2022-12-14T12:11:01.861Z,68.55
2022-12-14T12:13:39.491Z,68.45
2022-12-14T12:16:17.327Z,67.97
2022-12-14T12:18:55.764Z,68.03
2022-12-14T12:21:30.442Z,68.47
2022-12-14T12:24:07.245Z,68.33
2022-12-14T12:26:49.803Z,68.84
2022-12-14T12:29:29.036Z,68.43
2022-12-14T12:32:08.781Z,68.62
2022-12-14T12:34:48.997Z,68.82
2022-12-14T12:37:30.857Z,68.96
2022-12-14T12:40:13.205Z,68.91
2022-12-14T12:42:49.629Z,69.03
2022-12-14T12:45:27.541Z,69.33
2022-12-14T12:48:05.616Z,69.63
2022-12-14T12:50:44.757Z,68.76
2022-12-14T12:53:28.210Z,69.32
2022-12-14T12:56:08.776Z,69.56
2022-12-14T12:58:41.970Z,69.62
2022-12-14T13:01:25.037Z,68.88
2022-12-14T13:04:02.473Z,69.03
2022-12-14T13:06:50.029Z,69.07
2022-12-14T13:09:40.706Z,69.37
2022-12-14T13:12:23.583Z,69.52
2022-12-14T13:14:59.822Z,69.45
2022-12-14T13:17:38.381Z,69.83
2022-12-14T13:20:21.853Z,70.34
2022-12-14T13:22:57.386Z,69.01
2022-12-14T13:25:43.340Z,69.94
2022-12-14T13:28:40.106Z,69.99
2022-12-14T13:31:24.693Z,69.69
2022-12-14T13:34:23.451Z,70.08
2022-12-14T13:37:19.925Z,69.88
2022-12-14T13:40:18.609Z,69.83
2022-12-14T13:43:00.939Z,69.53
2022-12-14T13:45:39.381Z,69.72
2022-12-14T13:48:22.295Z,70.34
2022-12-14T13:51:01.873Z,70.07
2022-12-14T13:53:42.513Z,70.13
2022-12-14T13:56:20.480Z,70.25
2022-12-14T13:58:55.583Z,70.27
2022-12-14T14:01:55.851Z,69.13
2022-12-14T14:04:32.790Z,69.67
2022-12-14T14:07:38.721Z,69.92
2022-12-14T14:10:30.569Z,70.07
2022-12-14T14:13:42.938Z,70.52
2022-12-14T14:16:28.364Z,71.27
2022-12-14T14:19:07.926Z,70.63
2022-12-14T14:22:06.119Z,70.49
2022-12-14T14:24:55.016Z,71.20
2022-12-14T14:27:36.689Z,70.37
2022-12-14T14:30:25.949Z,70.29
2022-12-14T14:33:19.843Z,69.87
2022-12-14T14:35:52.471Z,70.61
2022-12-14T14:38:29.210Z,70.62
2022-12-14T14:41:18.828Z,69.21
2022-12-14T14:43:57.702Z,69.56
2022-12-14T14:46:40.318Z,69.35
2022-12-14T14:49:23.628Z,69.11
2022-12-14T14:51:56.882Z,69.11
2022-12-14T14:55:07.052Z,69.43
2022-12-14T14:57:35.073Z,68.80
2022-12-14T15:00:13.434Z,69.09
2022-12-14T15:02:47.088Z,69.47
2022-12-14T15:05:41.977Z,69.01
2022-12-14T15:08:21.524Z,69.43
2022-12-14T15:11:32.278Z,68.92
2022-12-14T15:14:48.933Z,69.09
2022-12-14T15:39:07.908Z,68.84
2022-12-14T15:41:49.144Z,68.46
2022-12-14T15:44:23.114Z,69.12
2022-12-14T15:46:56.296Z,69.10
2022-12-14T15:49:29.012Z,68.44
2022-12-14T15:52:01.941Z,68.76
2022-12-14T15:54:36.151Z,69.45
2022-12-14T15:57:17.631Z,68.33
2022-12-14T15:59:58.582Z,68.82
2022-12-14T16:02:39.902Z,67.92
2022-12-14T16:05:17.218Z,68.61
2022-12-14T16:07:53.130Z,68.75
2022-12-14T16:10:31.766Z,68.54
2022-12-14T16:13:09.031Z,67.99
2022-12-14T16:15:43.525Z,68.59
2022-12-14T16:18:18.470Z,68.61
2022-12-14T16:20:57.708Z,68.72
2022-12-14T16:23:33.348Z,68.54
2022-12-14T16:26:23.165Z,68.91
2022-12-14T16:29:10.660Z,68.82
2022-12-14T16:31:45.969Z,67.95
2022-12-14T16:34:23.449Z,68.76
2022-12-14T16:37:31.029Z,68.88
2022-12-14T16:39:54.418Z,68.48
2022-12-14T16:42:28.960Z,67.78
2022-12-14T16:45:02.151Z,68.06
2022-12-14T16:48:03.502Z,68.61
2022-12-14T16:53:30.656Z,69.72
2022-12-14T16:56:06.726Z,69.04
2022-12-14T16:58:41.261Z,68.84
2022-12-14T17:01:14.193Z,68.74
2022-12-14T17:03:54.514Z,68.81
2022-12-14T17:06:38.279Z,68.50
2022-12-14T17:09:20.155Z,68.04
2022-12-14T17:11:55.960Z,68.60
2022-12-14T17:14:30.224Z,68.43
2022-12-14T17:17:05.029Z,68.40
2022-12-14T17:19:40.029Z,70.18
2022-12-14T17:22:18.741Z,68.45
2022-12-14T17:24:51.679Z,68.62
2022-12-14T17:27:26.662Z,68.15
2022-12-14T17:30:01.038Z,68.97
2022-12-14T17:32:34.438Z,67.76
2022-12-14T17:35:11.140Z,67.99
2022-12-14T17:37:44.130Z,68.52
2022-12-14T17:40:17.562Z,68.58
2022-12-14T17:42:53.571Z,68.67
2022-12-14T17:45:30.004Z,68.13
2022-12-14T17:48:02.961Z,69.17
2022-12-14T17:50:36.249Z,68.51
2022-12-14T17:53:13.719Z,69.39
2022-12-14T17:55:46.660Z,69.22
2022-12-14T17:58:19.593Z,68.42
2022-12-14T18:01:03.447Z,68.12
2022-12-14T18:03:37.099Z,68.55
2022-12-14T18:06:14.867Z,69.36
2022-12-14T18:08:48.722Z,68.34
2022-12-14T18:11:24.458Z,68.20
2022-12-14T18:13:57.286Z,68.12
2022-12-14T18:16:31.393Z,68.49
2022-12-14T18:19:04.219Z,68.97
2022-12-14T18:21:36.964Z,68.80
2022-12-14T18:24:15.464Z,67.97
2022-12-14T18:26:48.401Z,68.98
2022-12-14T18:29:22.933Z,68.95
2022-12-14T18:31:57.477Z,68.21
2022-12-14T18:34:30.220Z,67.80
2022-12-14T18:37:02.981Z,68.12
2022-12-14T18:39:36.140Z,68.81
2022-12-14T18:42:12.067Z,67.81
2022-12-14T18:44:44.890Z,68.94
2022-12-14T18:47:40.711Z,68.44
2022-12-14T18:50:12.815Z,68.74
2022-12-14T18:52:46.377Z,68.99
2022-12-14T18:55:21.562Z,68.48
2022-12-14T18:57:57.046Z,68.49
2022-12-14T19:00:32.653Z,69.34
2022-12-14T19:03:07.175Z,69.20
2022-12-14T19:05:40.766Z,68.60
2022-12-14T19:08:13.834Z,68.82
2022-12-14T19:10:48.991Z,68.99
2022-12-14T19:13:25.800Z,68.64
2022-12-14T19:15:59.199Z,68.33
2022-12-14T19:18:33.432Z,68.67
2022-12-14T19:21:06.809Z,68.62
2022-12-14T19:23:39.574Z,69.01
2022-12-14T19:26:12.317Z,68.46
2022-12-14T19:28:45.070Z,68.58
2022-12-14T19:31:25.217Z,69.02
2022-12-14T19:33:59.417Z,68.24
2022-12-14T19:36:32.145Z,68.77
2022-12-14T19:39:07.404Z,68.69
2022-12-14T19:41:40.208Z,68.81
2022-12-14T19:44:12.899Z,68.43
2022-12-14T19:46:46.080Z,68.91
2022-12-14T19:49:22.131Z,68.96
2022-12-14T19:51:54.814Z,68.82
2022-12-14T19:54:28.505Z,68.74
2022-12-14T19:57:02.050Z,69.15
2022-12-14T19:59:34.939Z,68.92
2022-12-14T20:02:08.209Z,68.03
2022-12-14T20:04:42.711Z,68.78
2022-12-14T20:07:15.533Z,68.93
2022-12-14T20:09:48.313Z,68.88
2022-12-14T20:12:21.074Z,69.22
2022-12-14T20:14:53.742Z,68.87
2022-12-14T20:17:27.250Z,68.60
2022-12-14T20:20:01.364Z,69.33
2022-12-14T20:22:34.245Z,68.57
2022-12-14T20:25:06.983Z,68.73
2022-12-14T20:27:40.928Z,69.44
2022-12-14T20:30:14.033Z,68.81
2022-12-14T20:32:49.264Z,69.27
2022-12-14T20:35:24.536Z,69.11
2022-12-14T20:37:57.548Z,69.12
2022-12-14T20:40:34.982Z,68.37
2022-12-14T20:43:10.725Z,69.17
2022-12-14T20:45:45.152Z,68.32
2022-12-14T20:48:17.809Z,69.53
2022-12-14T20:50:57.779Z,68.62
2022-12-14T20:53:32.332Z,70.11
2022-12-14T20:56:05.701Z,68.92
2022-12-14T20:58:40.538Z,69.09
2022-12-14T21:01:14.204Z,69.80
2022-12-14T21:03:47.758Z,71.37
2022-12-14T21:06:24.410Z,69.77
2022-12-14T21:09:05.093Z,69.43
2022-12-14T21:11:57.686Z,68.66
2022-12-14T21:14:33.523Z,69.08
2022-12-14T21:17:07.138Z,68.67
2022-12-14T21:19:41.406Z,68.31
2022-12-14T21:22:17.899Z,68.60
2022-12-14T21:25:07.314Z,68.51
2022-12-14T21:27:40.881Z,68.89
2022-12-14T21:30:14.015Z,67.92
2022-12-14T21:32:46.801Z,68.56
2022-12-14T21:35:22.041Z,68.53
2022-12-14T21:37:56.418Z,67.71
2022-12-14T21:40:46.912Z,68.62
2022-12-14T21:43:25.409Z,68.59
2022-12-14T21:45:58.183Z,68.41
2022-12-14T21:48:31.252Z,68.68
2022-12-14T21:51:07.505Z,68.68
2022-12-14T21:53:58.535Z,68.72
2022-12-14T21:56:50.491Z,68.60
2022-12-14T21:59:26.323Z,68.66
2022-12-14T22:02:01.524Z,69.63
2022-12-14T22:04:39.759Z,69.08
2022-12-14T22:07:13.325Z,69.68
2022-12-14T22:09:50.108Z,69.33
2022-12-14T22:12:23.035Z,68.79
2022-12-14T22:14:55.926Z,68.73
2022-12-14T22:17:28.799Z,69.22
2022-12-14T22:20:01.390Z,69.71
2022-12-14T22:22:34.619Z,68.84
2022-12-14T22:25:09.541Z,68.84
2022-12-14T22:27:42.219Z,69.23
2022-12-14T22:30:15.067Z,69.17
2022-12-14T22:32:47.959Z,68.78
2022-12-14T22:35:20.628Z,69.09
2022-12-14T22:37:53.482Z,69.31
2022-12-14T22:40:27.371Z,69.00
2022-12-14T22:43:00.619Z,68.93
2022-12-14T22:45:35.601Z,69.61
2022-12-14T22:48:08.489Z,69.25
2022-12-14T22:50:41.316Z,68.98
2022-12-14T22:53:14.914Z,70.08
2022-12-14T22:55:49.939Z,69.73
2022-12-14T22:58:23.910Z,68.70
2022-12-14T23:00:56.764Z,69.28
2022-12-14T23:03:30.228Z,69.34
2022-12-14T23:06:03.646Z,69.70
2022-12-14T23:08:36.442Z,70.61
2022-12-14T23:11:27.730Z,69.15
2022-12-14T23:14:18.184Z,69.40
2022-12-14T23:17:08.565Z,69.64
2022-12-14T23:20:04.456Z,69.22
2022-12-14T23:22:55.750Z,70.22
2022-12-14T23:25:46.207Z,69.76
2022-12-14T23:28:38.118Z,69.52
2022-12-14T23:31:28.542Z,69.33
2022-12-14T23:34:18.926Z,69.98
2022-12-14T23:37:09.136Z,70.00
2022-12-14T23:39:59.699Z,69.62
2022-12-14T23:42:50.086Z,69.55
2022-12-14T23:45:42.034Z,69.52
2022-12-14T23:48:35.457Z,69.13
2022-12-14T23:51:26.243Z,69.02
2022-12-14T23:54:16.669Z,69.12
2022-12-14T23:57:07.098Z,68.59
2022-12-14T23:59:57.617Z,69.16
